sensor_id;sensor_type;location;lat;lon;timestamp;P1;durP1;ratioP1;P2;durP2;ratioP2
1360;SDS011;674;45.552;-122.600;2023-07-28T00:01:30;3.93;;;2.10;;
1360;SDS011;674;45.552;-122.600;2023-07-28T00:03:59;2.00;;;1.80;;
1360;SDS011;674;45.552;-122.600;2023-07-28T00:06:27;1.77;;;1.67;;
1360;SDS011;674;45.552;-122.600;2023-07-28T00:08:59;2.00;;;1.53;;
1360;SDS011;674;45.552;-122.600;2023-07-28T00:11:28;1.77;;;1.67;;
1360;SDS011;674;45.552;-122.600;2023-07-28T00:13:56;2.17;;;1.57;;
1360;SDS011;674;45.552;-122.600;2023-07-28T00:16:25;2.83;;;1.23;;
1360;SDS011;674;45.552;-122.600;2023-07-28T00:18:53;2.47;;;1.40;;
1360;SDS011;674;45.552;-122.600;2023-07-28T00:21:22;2.07;;;1.77;;
1360;SDS011;674;45.552;-122.600;2023-07-28T00:23:50;2.10;;;1.63;;
1360;SDS011;674;45.552;-122.600;2023-07-28T00:26:22;2.27;;;1.70;;
1360;SDS011;674;45.552;-122.600;2023-07-28T00:28:50;2.13;;;1.70;;
1360;SDS011;674;45.552;-122.600;2023-07-28T00:31:19;2.20;;;1.53;;
1360;SDS011;674;45.552;-122.600;2023-07-28T00:33:47;2.60;;;1.57;;
1360;SDS011;674;45.552;-122.600;2023-07-28T00:36:19;2.20;;;1.90;;
1360;SDS011;674;45.552;-122.600;2023-07-28T00:38:47;1.80;;;1.40;;
1360;SDS011;674;45.552;-122.600;2023-07-28T00:41:16;1.90;;;1.70;;
1360;SDS011;674;45.552;-122.600;2023-07-28T00:43:44;2.20;;;1.57;;
1360;SDS011;674;45.552;-122.600;2023-07-28T00:46:13;2.80;;;1.63;;
1360;SDS011;674;45.552;-122.600;2023-07-28T00:48:50;2.00;;;1.83;;
1360;SDS011;674;45.552;-122.600;2023-07-28T00:51:20;3.20;;;1.90;;
1360;SDS011;674;45.552;-122.600;2023-07-28T00:53:49;2.80;;;1.83;;
1360;SDS011;674;45.552;-122.600;2023-07-28T00:56:20;2.90;;;1.60;;
1360;SDS011;674;45.552;-122.600;2023-07-28T00:58:49;4.87;;;1.93;;
1360;SDS011;674;45.552;-122.600;2023-07-28T01:01:18;2.53;;;1.97;;
1360;SDS011;674;45.552;-122.600;2023-07-28T01:03:47;2.27;;;1.50;;
1360;SDS011;674;45.552;-122.600;2023-07-28T01:09:12;3.03;;;1.50;;
1360;SDS011;674;45.552;-122.600;2023-07-28T01:11:53;1.80;;;1.70;;
1360;SDS011;674;45.552;-122.600;2023-07-28T01:14:26;2.77;;;1.90;;
1360;SDS011;674;45.552;-122.600;2023-07-28T01:16:54;3.17;;;1.73;;
1360;SDS011;674;45.552;-122.600;2023-07-28T01:19:22;6.20;;;2.37;;
1360;SDS011;674;45.552;-122.600;2023-07-28T01:21:53;2.70;;;1.70;;
1360;SDS011;674;45.552;-122.600;2023-07-28T01:25:04;2.53;;;1.73;;
1360;SDS011;674;45.552;-122.600;2023-07-28T01:27:44;2.83;;;1.77;;
1360;SDS011;674;45.552;-122.600;2023-07-28T01:30:13;3.17;;;1.50;;
1360;SDS011;674;45.552;-122.600;2023-07-28T01:32:42;3.07;;;1.70;;
1360;SDS011;674;45.552;-122.600;2023-07-28T01:35:11;2.60;;;1.70;;
1360;SDS011;674;45.552;-122.600;2023-07-28T01:37:39;2.43;;;1.60;;
1360;SDS011;674;45.552;-122.600;2023-07-28T01:40:08;2.10;;;1.60;;
1360;SDS011;674;45.552;-122.600;2023-07-28T01:42:36;2.10;;;1.90;;
1360;SDS011;674;45.552;-122.600;2023-07-28T01:45:05;1.87;;;1.60;;
1360;SDS011;674;45.552;-122.600;2023-07-28T01:47:34;3.67;;;1.90;;
1360;SDS011;674;45.552;-122.600;2023-07-28T01:50:03;1.93;;;1.57;;
1360;SDS011;674;45.552;-122.600;2023-07-28T01:52:31;3.07;;;2.20;;
1360;SDS011;674;45.552;-122.600;2023-07-28T01:55:00;1.93;;;1.83;;
1360;SDS011;674;45.552;-122.600;2023-07-28T01:57:32;2.23;;;1.77;;
1360;SDS011;674;45.552;-122.600;2023-07-28T02:00:01;2.37;;;1.73;;
1360;SDS011;674;45.552;-122.600;2023-07-28T02:02:31;3.67;;;2.23;;
1360;SDS011;674;45.552;-122.600;2023-07-28T02:04:59;3.10;;;2.10;;
1360;SDS011;674;45.552;-122.600;2023-07-28T02:07:28;2.70;;;1.60;;
1360;SDS011;674;45.552;-122.600;2023-07-28T02:09:57;1.97;;;1.50;;
1360;SDS011;674;45.552;-122.600;2023-07-28T02:12:25;2.50;;;1.70;;
1360;SDS011;674;45.552;-122.600;2023-07-28T02:14:54;2.40;;;2.07;;
1360;SDS011;674;45.552;-122.600;2023-07-28T02:17:22;1.90;;;1.80;;
1360;SDS011;674;45.552;-122.600;2023-07-28T02:19:51;2.83;;;1.60;;
1360;SDS011;674;45.552;-122.600;2023-07-28T02:22:19;4.00;;;1.90;;
1360;SDS011;674;45.552;-122.600;2023-07-28T02:24:48;1.60;;;1.50;;
1360;SDS011;674;45.552;-122.600;2023-07-28T02:27:16;2.23;;;1.53;;
1360;SDS011;674;45.552;-122.600;2023-07-28T02:29:45;2.67;;;1.90;;
1360;SDS011;674;45.552;-122.600;2023-07-28T02:32:18;2.30;;;1.80;;
1360;SDS011;674;45.552;-122.600;2023-07-28T02:34:50;2.57;;;1.70;;
1360;SDS011;674;45.552;-122.600;2023-07-28T02:37:18;2.90;;;1.80;;
1360;SDS011;674;45.552;-122.600;2023-07-28T02:39:47;3.03;;;2.00;;
1360;SDS011;674;45.552;-122.600;2023-07-28T02:42:15;2.40;;;1.53;;
1360;SDS011;674;45.552;-122.600;2023-07-28T02:44:44;2.50;;;1.97;;
1360;SDS011;674;45.552;-122.600;2023-07-28T02:47:12;4.70;;;1.90;;
1360;SDS011;674;45.552;-122.600;2023-07-28T02:49:41;2.90;;;2.03;;
1360;SDS011;674;45.552;-122.600;2023-07-28T02:52:10;2.17;;;1.90;;
1360;SDS011;674;45.552;-122.600;2023-07-28T02:54:39;2.40;;;1.97;;
1360;SDS011;674;45.552;-122.600;2023-07-28T02:57:07;2.80;;;2.20;;
1360;SDS011;674;45.552;-122.600;2023-07-28T02:59:36;2.50;;;2.30;;
1360;SDS011;674;45.552;-122.600;2023-07-28T03:02:04;3.57;;;2.20;;
1360;SDS011;674;45.552;-122.600;2023-07-28T03:04:33;4.60;;;2.80;;
1360;SDS011;674;45.552;-122.600;2023-07-28T03:07:01;3.57;;;2.23;;
1360;SDS011;674;45.552;-122.600;2023-07-28T03:09:30;2.83;;;2.30;;
1360;SDS011;674;45.552;-122.600;2023-07-28T03:11:59;2.40;;;2.20;;
1360;SDS011;674;45.552;-122.600;2023-07-28T03:14:27;3.40;;;2.30;;
1360;SDS011;674;45.552;-122.600;2023-07-28T03:16:56;3.40;;;2.23;;
1360;SDS011;674;45.552;-122.600;2023-07-28T03:19:25;3.27;;;2.50;;
1360;SDS011;674;45.552;-122.600;2023-07-28T03:21:53;4.00;;;2.57;;
1360;SDS011;674;45.552;-122.600;2023-07-28T03:24:22;2.23;;;1.93;;
1360;SDS011;674;45.552;-122.600;2023-07-28T03:26:50;3.47;;;2.17;;
1360;SDS011;674;45.552;-122.600;2023-07-28T03:29:19;2.80;;;2.20;;
1360;SDS011;674;45.552;-122.600;2023-07-28T03:31:47;3.70;;;2.10;;
1360;SDS011;674;45.552;-122.600;2023-07-28T03:34:16;3.13;;;2.50;;
1360;SDS011;674;45.552;-122.600;2023-07-28T03:36:44;4.60;;;2.43;;
1360;SDS011;674;45.552;-122.600;2023-07-28T03:39:13;2.87;;;2.17;;
1360;SDS011;674;45.552;-122.600;2023-07-28T03:41:41;2.67;;;2.40;;
1360;SDS011;674;45.552;-122.600;2023-07-28T03:44:10;4.30;;;2.57;;
1360;SDS011;674;45.552;-122.600;2023-07-28T03:46:38;2.67;;;2.20;;
1360;SDS011;674;45.552;-122.600;2023-07-28T03:49:07;5.30;;;2.63;;
1360;SDS011;674;45.552;-122.600;2023-07-28T03:51:35;4.30;;;2.13;;
1360;SDS011;674;45.552;-122.600;2023-07-28T03:54:04;3.20;;;2.70;;
1360;SDS011;674;45.552;-122.600;2023-07-28T03:56:33;4.47;;;2.37;;
1360;SDS011;674;45.552;-122.600;2023-07-28T03:59:02;2.93;;;2.10;;
1360;SDS011;674;45.552;-122.600;2023-07-28T04:01:31;3.03;;;2.40;;
1360;SDS011;674;45.552;-122.600;2023-07-28T04:03:59;4.90;;;2.40;;
1360;SDS011;674;45.552;-122.600;2023-07-28T04:06:46;2.43;;;1.87;;
1360;SDS011;674;45.552;-122.600;2023-07-28T04:09:17;2.53;;;1.90;;
1360;SDS011;674;45.552;-122.600;2023-07-28T04:11:46;6.03;;;2.53;;
1360;SDS011;674;45.552;-122.600;2023-07-28T04:14:15;4.33;;;2.30;;
1360;SDS011;674;45.552;-122.600;2023-07-28T04:16:43;4.00;;;2.30;;
1360;SDS011;674;45.552;-122.600;2023-07-28T04:19:12;5.73;;;2.57;;
1360;SDS011;674;45.552;-122.600;2023-07-28T04:21:41;3.53;;;2.40;;
1360;SDS011;674;45.552;-122.600;2023-07-28T04:24:09;3.40;;;2.60;;
1360;SDS011;674;45.552;-122.600;2023-07-28T04:26:38;5.60;;;2.80;;
1360;SDS011;674;45.552;-122.600;2023-07-28T04:29:07;3.10;;;2.03;;
1360;SDS011;674;45.552;-122.600;2023-07-28T04:31:35;2.90;;;2.30;;
1360;SDS011;674;45.552;-122.600;2023-07-28T04:34:04;5.50;;;2.37;;
1360;SDS011;674;45.552;-122.600;2023-07-28T04:36:32;2.83;;;2.20;;
1360;SDS011;674;45.552;-122.600;2023-07-28T04:39:01;5.37;;;2.20;;
1360;SDS011;674;45.552;-122.600;2023-07-28T04:41:30;4.73;;;2.40;;
1360;SDS011;674;45.552;-122.600;2023-07-28T04:43:58;4.13;;;2.40;;
1360;SDS011;674;45.552;-122.600;2023-07-28T04:46:27;3.10;;;2.60;;
1360;SDS011;674;45.552;-122.600;2023-07-28T04:48:56;3.53;;;2.60;;
1360;SDS011;674;45.552;-122.600;2023-07-28T04:51:25;3.80;;;2.63;;
1360;SDS011;674;45.552;-122.600;2023-07-28T04:53:53;5.13;;;2.30;;
1360;SDS011;674;45.552;-122.600;2023-07-28T04:56:22;3.37;;;2.70;;
1360;SDS011;674;45.552;-122.600;2023-07-28T04:58:50;5.87;;;2.73;;
1360;SDS011;674;45.552;-122.600;2023-07-28T05:01:19;3.27;;;2.40;;
1360;SDS011;674;45.552;-122.600;2023-07-28T05:03:47;5.10;;;2.30;;
1360;SDS011;674;45.552;-122.600;2023-07-28T05:06:18;6.70;;;2.87;;
1360;SDS011;674;45.552;-122.600;2023-07-28T05:08:47;4.40;;;3.20;;
1360;SDS011;674;45.552;-122.600;2023-07-28T05:11:15;3.43;;;2.17;;
1360;SDS011;674;45.552;-122.600;2023-07-28T05:13:44;6.00;;;3.10;;
1360;SDS011;674;45.552;-122.600;2023-07-28T05:16:12;5.00;;;2.80;;
1360;SDS011;674;45.552;-122.600;2023-07-28T05:18:41;3.60;;;2.03;;
1360;SDS011;674;45.552;-122.600;2023-07-28T05:21:18;3.37;;;2.87;;
1360;SDS011;674;45.552;-122.600;2023-07-28T05:23:46;2.97;;;2.47;;
1360;SDS011;674;45.552;-122.600;2023-07-28T05:26:15;6.67;;;2.53;;
1360;SDS011;674;45.552;-122.600;2023-07-28T05:28:43;5.50;;;3.13;;
1360;SDS011;674;45.552;-122.600;2023-07-28T05:31:12;3.67;;;2.57;;
1360;SDS011;674;45.552;-122.600;2023-07-28T05:33:42;4.30;;;2.33;;
1360;SDS011;674;45.552;-122.600;2023-07-28T05:36:16;3.60;;;2.70;;
1360;SDS011;674;45.552;-122.600;2023-07-28T05:38:44;3.17;;;2.40;;
1360;SDS011;674;45.552;-122.600;2023-07-28T05:41:12;3.27;;;2.07;;
1360;SDS011;674;45.552;-122.600;2023-07-28T05:43:41;5.40;;;2.70;;
1360;SDS011;674;45.552;-122.600;2023-07-28T05:46:10;2.90;;;2.10;;
1360;SDS011;674;45.552;-122.600;2023-07-28T05:48:39;4.03;;;2.40;;
1360;SDS011;674;45.552;-122.600;2023-07-28T05:51:08;3.07;;;2.43;;
1360;SDS011;674;45.552;-122.600;2023-07-28T05:53:36;3.33;;;2.27;;
1360;SDS011;674;45.552;-122.600;2023-07-28T05:56:05;6.13;;;2.90;;
1360;SDS011;674;45.552;-122.600;2023-07-28T05:58:33;3.87;;;2.67;;
1360;SDS011;674;45.552;-122.600;2023-07-28T06:01:02;4.00;;;2.70;;
1360;SDS011;674;45.552;-122.600;2023-07-28T06:03:30;3.77;;;2.33;;
1360;SDS011;674;45.552;-122.600;2023-07-28T06:05:59;4.03;;;2.60;;
1360;SDS011;674;45.552;-122.600;2023-07-28T06:08:27;4.70;;;2.90;;
1360;SDS011;674;45.552;-122.600;2023-07-28T06:10:56;4.13;;;2.60;;
1360;SDS011;674;45.552;-122.600;2023-07-28T06:13:25;4.03;;;2.53;;
1360;SDS011;674;45.552;-122.600;2023-07-28T06:15:53;4.47;;;2.70;;
1360;SDS011;674;45.552;-122.600;2023-07-28T06:18:23;3.17;;;2.70;;
1360;SDS011;674;45.552;-122.600;2023-07-28T06:20:52;2.90;;;2.23;;
1360;SDS011;674;45.552;-122.600;2023-07-28T06:23:21;4.37;;;2.73;;
1360;SDS011;674;45.552;-122.600;2023-07-28T06:25:49;5.40;;;2.80;;
1360;SDS011;674;45.552;-122.600;2023-07-28T06:28:18;2.77;;;2.50;;
1360;SDS011;674;45.552;-122.600;2023-07-28T06:30:47;2.77;;;2.27;;
1360;SDS011;674;45.552;-122.600;2023-07-28T06:33:20;5.90;;;2.90;;
1360;SDS011;674;45.552;-122.600;2023-07-28T06:35:49;3.20;;;2.90;;
1360;SDS011;674;45.552;-122.600;2023-07-28T06:38:17;4.30;;;2.63;;
1360;SDS011;674;45.552;-122.600;2023-07-28T06:40:46;5.30;;;3.10;;
1360;SDS011;674;45.552;-122.600;2023-07-28T06:43:15;5.10;;;3.00;;
1360;SDS011;674;45.552;-122.600;2023-07-28T06:45:45;3.10;;;2.70;;
1360;SDS011;674;45.552;-122.600;2023-07-28T06:48:14;4.97;;;2.83;;
1360;SDS011;674;45.552;-122.600;2023-07-28T06:50:44;10.87;;;3.77;;
1360;SDS011;674;45.552;-122.600;2023-07-28T06:53:12;3.03;;;2.57;;
1360;SDS011;674;45.552;-122.600;2023-07-28T06:55:42;4.27;;;3.30;;
1360;SDS011;674;45.552;-122.600;2023-07-28T06:58:11;4.93;;;2.63;;
1360;SDS011;674;45.552;-122.600;2023-07-28T07:00:39;3.53;;;2.70;;
1360;SDS011;674;45.552;-122.600;2023-07-28T07:03:10;2.90;;;2.30;;
1360;SDS011;674;45.552;-122.600;2023-07-28T07:05:39;7.37;;;4.00;;
1360;SDS011;674;45.552;-122.600;2023-07-28T07:08:07;4.40;;;3.10;;
1360;SDS011;674;45.552;-122.600;2023-07-28T07:10:35;4.60;;;3.37;;
1360;SDS011;674;45.552;-122.600;2023-07-28T07:13:04;4.33;;;2.60;;
1360;SDS011;674;45.552;-122.600;2023-07-28T07:15:33;5.57;;;3.03;;
1360;SDS011;674;45.552;-122.600;2023-07-28T07:18:02;3.03;;;2.73;;
1360;SDS011;674;45.552;-122.600;2023-07-28T07:20:33;3.63;;;3.33;;
1360;SDS011;674;45.552;-122.600;2023-07-28T07:23:03;2.70;;;2.30;;
1360;SDS011;674;45.552;-122.600;2023-07-28T07:25:35;4.77;;;2.70;;
1360;SDS011;674;45.552;-122.600;2023-07-28T07:28:03;4.80;;;2.80;;
1360;SDS011;674;45.552;-122.600;2023-07-28T07:30:32;3.87;;;2.67;;
1360;SDS011;674;45.552;-122.600;2023-07-28T07:33:01;4.27;;;3.40;;
1360;SDS011;674;45.552;-122.600;2023-07-28T07:35:30;5.00;;;3.30;;
1360;SDS011;674;45.552;-122.600;2023-07-28T07:38:03;5.20;;;2.83;;
1360;SDS011;674;45.552;-122.600;2023-07-28T07:40:36;4.93;;;2.97;;
1360;SDS011;674;45.552;-122.600;2023-07-28T07:43:05;3.33;;;2.80;;
1360;SDS011;674;45.552;-122.600;2023-07-28T07:45:34;3.90;;;2.77;;
1360;SDS011;674;45.552;-122.600;2023-07-28T07:48:02;4.17;;;3.13;;
1360;SDS011;674;45.552;-122.600;2023-07-28T07:50:31;4.73;;;3.17;;
1360;SDS011;674;45.552;-122.600;2023-07-28T07:53:00;4.30;;;3.00;;
1360;SDS011;674;45.552;-122.600;2023-07-28T07:55:31;4.07;;;3.00;;
1360;SDS011;674;45.552;-122.600;2023-07-28T07:58:00;4.90;;;2.70;;
1360;SDS011;674;45.552;-122.600;2023-07-28T08:00:28;3.47;;;3.17;;
1360;SDS011;674;45.552;-122.600;2023-07-28T08:02:57;4.97;;;2.67;;
1360;SDS011;674;45.552;-122.600;2023-07-28T08:05:25;3.63;;;2.90;;
1360;SDS011;674;45.552;-122.600;2023-07-28T08:07:55;6.73;;;3.83;;
1360;SDS011;674;45.552;-122.600;2023-07-28T08:10:24;4.93;;;3.13;;
1360;SDS011;674;45.552;-122.600;2023-07-28T08:12:53;4.30;;;2.63;;
1360;SDS011;674;45.552;-122.600;2023-07-28T08:15:22;3.50;;;3.13;;
1360;SDS011;674;45.552;-122.600;2023-07-28T08:17:51;3.50;;;2.67;;
1360;SDS011;674;45.552;-122.600;2023-07-28T08:20:19;5.50;;;3.10;;
1360;SDS011;674;45.552;-122.600;2023-07-28T08:22:48;5.70;;;3.20;;
1360;SDS011;674;45.552;-122.600;2023-07-28T08:25:17;5.57;;;2.87;;
1360;SDS011;674;45.552;-122.600;2023-07-28T08:27:45;3.27;;;2.73;;
1360;SDS011;674;45.552;-122.600;2023-07-28T08:30:14;5.57;;;2.83;;
1360;SDS011;674;45.552;-122.600;2023-07-28T08:32:43;6.90;;;3.03;;
1360;SDS011;674;45.552;-122.600;2023-07-28T08:35:11;5.93;;;2.97;;
1360;SDS011;674;45.552;-122.600;2023-07-28T08:37:40;4.33;;;2.83;;
1360;SDS011;674;45.552;-122.600;2023-07-28T08:40:09;4.83;;;2.80;;
1360;SDS011;674;45.552;-122.600;2023-07-28T08:42:39;5.73;;;3.10;;
1360;SDS011;674;45.552;-122.600;2023-07-28T08:45:08;7.77;;;3.30;;
1360;SDS011;674;45.552;-122.600;2023-07-28T08:47:37;4.67;;;2.90;;
1360;SDS011;674;45.552;-122.600;2023-07-28T08:50:06;3.90;;;2.80;;
1360;SDS011;674;45.552;-122.600;2023-07-28T08:52:34;4.23;;;3.13;;
1360;SDS011;674;45.552;-122.600;2023-07-28T08:55:03;4.70;;;3.13;;
1360;SDS011;674;45.552;-122.600;2023-07-28T08:57:32;4.10;;;2.70;;
1360;SDS011;674;45.552;-122.600;2023-07-28T09:00:10;4.30;;;3.10;;
1360;SDS011;674;45.552;-122.600;2023-07-28T09:02:41;4.50;;;2.70;;
1360;SDS011;674;45.552;-122.600;2023-07-28T09:05:16;6.30;;;3.37;;
1360;SDS011;674;45.552;-122.600;2023-07-28T09:07:51;5.43;;;3.03;;
1360;SDS011;674;45.552;-122.600;2023-07-28T09:10:19;4.07;;;3.37;;
1360;SDS011;674;45.552;-122.600;2023-07-28T09:12:48;3.43;;;2.47;;
1360;SDS011;674;45.552;-122.600;2023-07-28T09:15:17;3.30;;;2.70;;
1360;SDS011;674;45.552;-122.600;2023-07-28T09:17:46;5.07;;;2.93;;
1360;SDS011;674;45.552;-122.600;2023-07-28T09:20:15;6.77;;;2.83;;
1360;SDS011;674;45.552;-122.600;2023-07-28T09:22:45;7.13;;;3.27;;
1360;SDS011;674;45.552;-122.600;2023-07-28T09:25:18;4.70;;;3.13;;
1360;SDS011;674;45.552;-122.600;2023-07-28T09:27:52;5.30;;;3.10;;
1360;SDS011;674;45.552;-122.600;2023-07-28T09:30:21;5.20;;;3.13;;
1360;SDS011;674;45.552;-122.600;2023-07-28T09:32:52;6.43;;;2.87;;
1360;SDS011;674;45.552;-122.600;2023-07-28T09:35:22;4.33;;;2.97;;
1360;SDS011;674;45.552;-122.600;2023-07-28T09:37:51;4.63;;;3.00;;
1360;SDS011;674;45.552;-122.600;2023-07-28T09:40:22;3.63;;;3.33;;
1360;SDS011;674;45.552;-122.600;2023-07-28T09:42:51;3.70;;;2.80;;
1360;SDS011;674;45.552;-122.600;2023-07-28T09:45:22;3.40;;;2.60;;
1360;SDS011;674;45.552;-122.600;2023-07-28T09:47:55;5.13;;;3.13;;
1360;SDS011;674;45.552;-122.600;2023-07-28T09:50:26;3.70;;;3.27;;
1360;SDS011;674;45.552;-122.600;2023-07-28T09:53:01;4.87;;;2.73;;
1360;SDS011;674;45.552;-122.600;2023-07-28T09:55:30;4.80;;;3.10;;
1360;SDS011;674;45.552;-122.600;2023-07-28T09:58:01;3.70;;;3.30;;
1360;SDS011;674;45.552;-122.600;2023-07-28T10:00:35;5.70;;;2.63;;
1360;SDS011;674;45.552;-122.600;2023-07-28T10:03:04;4.83;;;2.80;;
1360;SDS011;674;45.552;-122.600;2023-07-28T10:05:33;5.53;;;3.77;;
1360;SDS011;674;45.552;-122.600;2023-07-28T10:08:02;9.27;;;4.23;;
1360;SDS011;674;45.552;-122.600;2023-07-28T10:10:32;4.97;;;2.83;;
1360;SDS011;674;45.552;-122.600;2023-07-28T10:13:01;4.10;;;3.03;;
1360;SDS011;674;45.552;-122.600;2023-07-28T10:15:31;4.30;;;3.10;;
1360;SDS011;674;45.552;-122.600;2023-07-28T10:18:00;3.13;;;2.60;;
1360;SDS011;674;45.552;-122.600;2023-07-28T10:25:40;5.43;;;2.97;;
1360;SDS011;674;45.552;-122.600;2023-07-28T10:31:03;7.30;;;4.10;;
1360;SDS011;674;45.552;-122.600;2023-07-28T10:33:34;5.43;;;3.30;;
1360;SDS011;674;45.552;-122.600;2023-07-28T10:41:35;4.80;;;3.27;;
1360;SDS011;674;45.552;-122.600;2023-07-28T10:44:04;3.40;;;3.10;;
1360;SDS011;674;45.552;-122.600;2023-07-28T10:46:34;4.03;;;2.90;;
1360;SDS011;674;45.552;-122.600;2023-07-28T10:49:08;5.60;;;3.70;;
1360;SDS011;674;45.552;-122.600;2023-07-28T10:51:44;5.83;;;3.60;;
1360;SDS011;674;45.552;-122.600;2023-07-28T10:54:13;4.80;;;3.87;;
1360;SDS011;674;45.552;-122.600;2023-07-28T10:56:47;4.43;;;3.27;;
1360;SDS011;674;45.552;-122.600;2023-07-28T10:59:16;6.40;;;3.50;;
1360;SDS011;674;45.552;-122.600;2023-07-28T11:01:44;6.03;;;3.60;;
1360;SDS011;674;45.552;-122.600;2023-07-28T11:04:17;5.30;;;3.60;;
1360;SDS011;674;45.552;-122.600;2023-07-28T11:06:50;3.83;;;3.40;;
1360;SDS011;674;45.552;-122.600;2023-07-28T11:09:21;4.13;;;3.70;;
1360;SDS011;674;45.552;-122.600;2023-07-28T11:11:53;4.60;;;3.33;;
1360;SDS011;674;45.552;-122.600;2023-07-28T11:14:22;4.93;;;3.03;;
1360;SDS011;674;45.552;-122.600;2023-07-28T11:16:51;4.93;;;3.50;;
1360;SDS011;674;45.552;-122.600;2023-07-28T11:19:21;7.57;;;4.17;;
1360;SDS011;674;45.552;-122.600;2023-07-28T11:21:54;4.43;;;3.30;;
1360;SDS011;674;45.552;-122.600;2023-07-28T11:24:23;3.87;;;3.47;;
1360;SDS011;674;45.552;-122.600;2023-07-28T11:26:53;7.37;;;3.63;;
1360;SDS011;674;45.552;-122.600;2023-07-28T11:29:26;8.27;;;4.10;;
1360;SDS011;674;45.552;-122.600;2023-07-28T11:31:55;5.50;;;3.77;;
1360;SDS011;674;45.552;-122.600;2023-07-28T11:34:24;3.70;;;3.20;;
1360;SDS011;674;45.552;-122.600;2023-07-28T11:36:53;5.97;;;3.77;;
1360;SDS011;674;45.552;-122.600;2023-07-28T11:39:22;4.10;;;3.43;;
1360;SDS011;674;45.552;-122.600;2023-07-28T11:41:51;5.77;;;3.80;;
1360;SDS011;674;45.552;-122.600;2023-07-28T11:44:22;6.17;;;4.13;;
1360;SDS011;674;45.552;-122.600;2023-07-28T11:46:51;4.93;;;3.50;;
1360;SDS011;674;45.552;-122.600;2023-07-28T11:49:22;4.70;;;3.70;;
1360;SDS011;674;45.552;-122.600;2023-07-28T11:51:52;5.43;;;4.20;;
1360;SDS011;674;45.552;-122.600;2023-07-28T11:54:23;3.73;;;3.43;;
1360;SDS011;674;45.552;-122.600;2023-07-28T11:56:56;5.20;;;3.30;;
1360;SDS011;674;45.552;-122.600;2023-07-28T11:59:25;5.90;;;4.33;;
1360;SDS011;674;45.552;-122.600;2023-07-28T12:01:59;4.50;;;3.70;;
1360;SDS011;674;45.552;-122.600;2023-07-28T12:04:32;5.10;;;3.90;;
1360;SDS011;674;45.552;-122.600;2023-07-28T12:12:29;6.70;;;4.50;;
1360;SDS011;674;45.552;-122.600;2023-07-28T12:15:17;4.63;;;4.10;;
1360;SDS011;674;45.552;-122.600;2023-07-28T12:20:53;12.27;;;4.77;;
1360;SDS011;674;45.552;-122.600;2023-07-28T12:23:22;6.60;;;4.63;;
1360;SDS011;674;45.552;-122.600;2023-07-28T12:25:53;7.80;;;4.30;;
1360;SDS011;674;45.552;-122.600;2023-07-28T12:28:23;5.53;;;4.17;;
1360;SDS011;674;45.552;-122.600;2023-07-28T12:30:52;5.63;;;4.37;;
1360;SDS011;674;45.552;-122.600;2023-07-28T12:33:23;6.00;;;4.83;;
1360;SDS011;674;45.552;-122.600;2023-07-28T12:36:04;6.90;;;4.00;;
1360;SDS011;674;45.552;-122.600;2023-07-28T12:38:36;5.77;;;4.60;;
1360;SDS011;674;45.552;-122.600;2023-07-28T12:41:07;5.23;;;4.17;;
1360;SDS011;674;45.552;-122.600;2023-07-28T12:43:36;7.57;;;4.50;;
1360;SDS011;674;45.552;-122.600;2023-07-28T12:46:07;5.53;;;4.73;;
1360;SDS011;674;45.552;-122.600;2023-07-28T12:48:37;5.23;;;4.13;;
1360;SDS011;674;45.552;-122.600;2023-07-28T12:51:09;5.33;;;4.30;;
1360;SDS011;674;45.552;-122.600;2023-07-28T12:53:38;10.30;;;5.43;;
1360;SDS011;674;45.552;-122.600;2023-07-28T12:56:06;7.10;;;4.50;;
1360;SDS011;674;45.552;-122.600;2023-07-28T12:58:35;7.00;;;4.70;;
1360;SDS011;674;45.552;-122.600;2023-07-28T13:01:06;5.90;;;4.30;;
1360;SDS011;674;45.552;-122.600;2023-07-28T13:03:36;6.23;;;5.00;;
1360;SDS011;674;45.552;-122.600;2023-07-28T13:06:05;4.87;;;4.23;;
1360;SDS011;674;45.552;-122.600;2023-07-28T13:08:34;5.50;;;4.60;;
1360;SDS011;674;45.552;-122.600;2023-07-28T13:11:05;5.60;;;5.10;;
1360;SDS011;674;45.552;-122.600;2023-07-28T13:13:37;5.53;;;3.90;;
1360;SDS011;674;45.552;-122.600;2023-07-28T13:16:05;8.23;;;5.03;;
1360;SDS011;674;45.552;-122.600;2023-07-28T13:18:38;5.77;;;4.33;;
1360;SDS011;674;45.552;-122.600;2023-07-28T13:21:08;6.20;;;4.40;;
1360;SDS011;674;45.552;-122.600;2023-07-28T13:23:40;6.03;;;4.73;;
1360;SDS011;674;45.552;-122.600;2023-07-28T13:26:08;5.93;;;5.23;;
1360;SDS011;674;45.552;-122.600;2023-07-28T13:28:37;5.20;;;4.20;;
1360;SDS011;674;45.552;-122.600;2023-07-28T13:31:07;6.67;;;4.97;;
1360;SDS011;674;45.552;-122.600;2023-07-28T13:33:35;6.57;;;5.10;;
1360;SDS011;674;45.552;-122.600;2023-07-28T13:36:04;4.30;;;3.90;;
1360;SDS011;674;45.552;-122.600;2023-07-28T13:38:35;7.17;;;3.87;;
1360;SDS011;674;45.552;-122.600;2023-07-28T13:41:04;6.30;;;4.50;;
1360;SDS011;674;45.552;-122.600;2023-07-28T13:43:33;5.67;;;4.50;;
1360;SDS011;674;45.552;-122.600;2023-07-28T13:46:06;5.90;;;4.03;;
1360;SDS011;674;45.552;-122.600;2023-07-28T13:48:37;7.67;;;4.43;;
1360;SDS011;674;45.552;-122.600;2023-07-28T13:51:18;5.43;;;4.67;;
1360;SDS011;674;45.552;-122.600;2023-07-28T13:54:07;4.83;;;4.43;;
1360;SDS011;674;45.552;-122.600;2023-07-28T13:56:40;8.50;;;4.90;;
1360;SDS011;674;45.552;-122.600;2023-07-28T13:59:26;7.43;;;4.00;;
1360;SDS011;674;45.552;-122.600;2023-07-28T14:01:55;8.50;;;5.07;;
1360;SDS011;674;45.552;-122.600;2023-07-28T14:04:25;6.97;;;4.30;;
1360;SDS011;674;45.552;-122.600;2023-07-28T14:06:57;5.33;;;4.77;;
1360;SDS011;674;45.552;-122.600;2023-07-28T14:09:26;5.43;;;4.40;;
1360;SDS011;674;45.552;-122.600;2023-07-28T14:11:54;6.10;;;4.60;;
1360;SDS011;674;45.552;-122.600;2023-07-28T14:14:23;5.77;;;4.30;;
1360;SDS011;674;45.552;-122.600;2023-07-28T14:16:51;9.13;;;4.23;;
1360;SDS011;674;45.552;-122.600;2023-07-28T14:19:20;6.43;;;4.17;;
1360;SDS011;674;45.552;-122.600;2023-07-28T14:21:48;4.97;;;4.47;;
1360;SDS011;674;45.552;-122.600;2023-07-28T14:24:17;5.43;;;3.93;;
1360;SDS011;674;45.552;-122.600;2023-07-28T14:26:45;4.60;;;4.20;;
1360;SDS011;674;45.552;-122.600;2023-07-28T14:29:14;4.30;;;3.97;;
1360;SDS011;674;45.552;-122.600;2023-07-28T14:31:42;5.30;;;4.30;;
1360;SDS011;674;45.552;-122.600;2023-07-28T14:34:11;5.90;;;3.30;;
1360;SDS011;674;45.552;-122.600;2023-07-28T14:36:40;7.40;;;5.03;;
1360;SDS011;674;45.552;-122.600;2023-07-28T14:39:08;6.43;;;4.20;;
1360;SDS011;674;45.552;-122.600;2023-07-28T14:41:37;5.20;;;4.40;;
1360;SDS011;674;45.552;-122.600;2023-07-28T14:44:05;4.60;;;3.90;;
1360;SDS011;674;45.552;-122.600;2023-07-28T14:46:34;5.80;;;4.13;;
1360;SDS011;674;45.552;-122.600;2023-07-28T14:49:05;7.30;;;4.57;;
1360;SDS011;674;45.552;-122.600;2023-07-28T14:51:37;4.90;;;4.37;;
1360;SDS011;674;45.552;-122.600;2023-07-28T14:54:05;6.70;;;3.83;;
1360;SDS011;674;45.552;-122.600;2023-07-28T14:56:34;8.90;;;4.53;;
1360;SDS011;674;45.552;-122.600;2023-07-28T14:59:03;5.27;;;4.50;;
1360;SDS011;674;45.552;-122.600;2023-07-28T15:01:31;7.03;;;4.80;;
1360;SDS011;674;45.552;-122.600;2023-07-28T15:04:01;5.97;;;4.00;;
1360;SDS011;674;45.552;-122.600;2023-07-28T15:06:32;4.53;;;3.97;;
1360;SDS011;674;45.552;-122.600;2023-07-28T15:09:00;4.60;;;3.90;;
1360;SDS011;674;45.552;-122.600;2023-07-28T15:11:29;6.33;;;4.30;;
1360;SDS011;674;45.552;-122.600;2023-07-28T15:13:58;4.87;;;4.37;;
1360;SDS011;674;45.552;-122.600;2023-07-28T15:16:26;6.10;;;4.40;;
1360;SDS011;674;45.552;-122.600;2023-07-28T15:18:55;5.37;;;4.10;;
1360;SDS011;674;45.552;-122.600;2023-07-28T15:21:24;6.30;;;4.10;;
1360;SDS011;674;45.552;-122.600;2023-07-28T15:23:56;6.87;;;4.53;;
1360;SDS011;674;45.552;-122.600;2023-07-28T15:26:25;5.43;;;3.83;;
1360;SDS011;674;45.552;-122.600;2023-07-28T15:28:54;4.73;;;4.10;;